Time;durP1;ratioP1;P1;durP2;ratioP2;P2;SDS_P1;SDS_P2;PMS_P1;PMS_P2;Temp;Humidity;BMP_temperature;BMP_pressure;BME280_temperature;BME280_humidity;BME280_pressure;Samples;Min_cycle;Max_cycle;Signal;HPM_P1;HPM_P2
2024/01/02 00:02:07;;;;;;;5.20;2.20;;;;;;;12.63;42.02;98158.88;6998420;28;20267;-82
2024/01/02 00:05:29;;;;;;;3.73;1.93;;;;;;;13.00;41.77;98146.78;6997982;28;20211;-85
2024/01/02 00:08:50;;;;;;;4.60;2.10;;;;;;;12.75;42.29;98146.19;7005146;28;20240;-86
2024/01/02 00:12:12;;;;;;;3.27;2.37;;;;;;;12.89;41.83;98132.19;6991934;28;20304;-86
2024/01/02 00:15:35;;;;;;;5.00;2.20;;;;;;;12.51;42.79;98133.69;6997790;28;20300;-85
2024/01/02 00:18:56;;;;;;;5.53;2.03;;;;;;;12.84;42.41;98125.81;6997104;28;20242;-85
2024/01/02 00:22:17;;;;;;;4.10;2.87;;;;;;;13.07;41.61;98115.00;6997155;28;20300;-85
2024/01/02 00:25:39;;;;;;;5.53;2.07;;;;;;;12.85;42.35;98112.06;6997348;28;20217;-85
2024/01/02 00:29:00;;;;;;;4.00;2.20;;;;;;;13.14;41.63;98104.88;7004967;28;20724;-84
2024/01/02 00:32:23;;;;;;;6.30;2.17;;;;;;;12.75;42.33;98105.59;6997849;28;20331;-85
2024/01/02 00:35:45;;;;;;;2.83;2.07;;;;;;;12.56;42.67;98090.56;6997948;28;20273;-85
2024/01/02 00:39:06;;;;;;;5.13;2.47;;;;;;;12.74;42.56;98099.34;6990606;28;20332;-85
2024/01/02 00:42:28;;;;;;;3.73;2.37;;;;;;;12.72;42.84;98081.72;6999136;28;20348;-85
2024/01/02 00:45:49;;;;;;;2.17;1.83;;;;;;;12.90;42.56;98079.72;7003096;28;20657;-85
2024/01/02 00:49:12;;;;;;;2.73;2.00;;;;;;;12.84;42.56;98075.25;7010453;28;20662;-85
2024/01/02 00:52:34;;;;;;;3.80;2.13;;;;;;;12.97;41.96;98057.94;7002708;28;20356;-86
2024/01/02 00:55:56;;;;;;;5.03;2.07;;;;;;;12.82;42.60;98055.75;7002257;28;20217;-86
2024/01/02 00:59:17;;;;;;;2.80;1.80;;;;;;;12.85;42.29;98049.84;7001054;28;20240;-85
2024/01/02 01:02:39;;;;;;;2.77;2.10;;;;;;;12.78;42.09;98043.75;7002646;28;20273;-85
2024/01/02 01:06:03;;;;;;;5.57;2.30;;;;;;;12.24;43.76;98060.31;7010713;28;20631;-84
2024/01/02 01:09:24;;;;;;;3.57;2.20;;;;;;;12.35;43.10;98016.28;7001405;28;20383;-85
2024/01/02 01:12:46;;;;;;;4.47;2.23;;;;;;;12.63;42.97;98046.09;6994594;28;20354;-85
2024/01/02 01:16:07;;;;;;;6.73;2.37;;;;;;;12.77;42.91;98036.69;7002603;28;20355;-85
2024/01/02 01:19:29;;;;;;;2.10;1.90;;;;;;;12.77;42.86;98025.88;7005987;28;20761;-85
2024/01/02 01:22:51;;;;;;;2.67;2.17;;;;;;;12.89;42.44;98015.84;6999236;28;20343;-85
2024/01/02 01:26:13;;;;;;;2.43;2.03;;;;;;;12.11;44.44;98033.50;7001829;28;20344;-85
2024/01/02 01:29:34;;;;;;;1.83;1.73;;;;;;;12.57;43.81;98013.78;7000925;28;20226;-86
2024/01/02 01:32:56;;;;;;;7.20;2.07;;;;;;;13.02;43.22;98004.78;7001784;28;20866;-86
2024/01/02 01:36:18;;;;;;;3.80;2.00;;;;;;;12.89;43.03;98002.31;7001550;28;20213;-86
2024/01/02 01:39:41;;;;;;;5.27;3.07;;;;;;;12.69;43.39;98001.06;7000521;28;20240;-86
2024/01/02 01:43:02;;;;;;;2.37;2.03;;;;;;;12.81;43.50;97991.84;7002077;28;20355;-86
2024/01/02 01:46:24;;;;;;;2.43;1.90;;;;;;;12.43;43.93;97988.03;7001908;28;20342;-85
2024/01/02 01:49:46;;;;;;;2.47;1.70;;;;;;;12.57;44.01;97981.34;7010058;28;20302;-84
2024/01/02 01:53:08;;;;;;;3.50;2.10;;;;;;;12.70;43.53;97989.19;7001341;28;20344;-85
2024/01/02 01:56:31;;;;;;;3.23;1.90;;;;;;;12.59;43.80;97987.31;7010572;28;20640;-84
2024/01/02 01:59:53;;;;;;;4.00;1.80;;;;;;;12.22;44.13;97959.72;7002219;28;20390;-84
2024/01/02 02:03:14;;;;;;;2.53;2.10;;;;;;;12.52;44.13;97973.91;7003196;28;20213;-84
2024/01/02 02:06:36;;;;;;;2.97;2.00;;;;;;;12.13;44.80;97936.00;7006925;28;20334;-85
2024/01/02 02:09:57;;;;;;;2.63;2.00;;;;;;;12.18;45.01;97949.63;7012786;28;20293;-84
2024/01/02 02:13:21;;;;;;;2.53;2.00;;;;;;;12.44;44.44;97930.19;7011907;28;20300;-85
2024/01/02 02:16:43;;;;;;;2.00;1.80;;;;;;;12.44;44.73;97949.13;6995321;28;20347;-84
2024/01/02 02:20:06;;;;;;;3.03;2.10;;;;;;;11.97;44.85;97890.78;7002200;28;20318;-84
2024/01/02 02:23:29;;;;;;;2.10;1.87;;;;;;;12.33;44.86;97937.28;7001582;28;20238;-84
2024/01/02 02:26:50;;;;;;;2.50;1.77;;;;;;;12.61;44.68;97939.22;7000681;28;20244;-85
2024/01/02 02:30:12;;;;;;;1.90;1.70;;;;;;;12.58;44.27;97937.81;7008483;28;20317;-85
2024/01/02 02:33:34;;;;;;;1.90;1.80;;;;;;;12.60;44.45;97916.78;6999840;28;20308;-85
2024/01/02 02:36:55;;;;;;;2.40;1.80;;;;;;;12.91;43.86;97915.50;6995863;28;20280;-84
2024/01/02 02:40:18;;;;;;;2.10;1.90;;;;;;;12.90;43.88;97901.16;6998405;28;20578;-85
2024/01/02 02:43:40;;;;;;;2.87;1.90;;;;;;;13.07;43.76;97893.94;6998804;28;20209;-84
2024/01/02 02:47:01;;;;;;;2.87;2.10;;;;;;;12.87;44.14;97862.94;6997789;28;20206;-84
2024/01/02 02:50:23;;;;;;;2.40;1.87;;;;;;;13.16;43.58;97878.13;6998857;28;20441;-85
2024/01/02 02:53:44;;;;;;;2.33;1.87;;;;;;;13.02;43.71;97871.34;6998129;28;20354;-84
2024/01/02 02:57:07;;;;;;;3.07;2.17;;;;;;;12.96;44.19;97867.75;6997888;28;20259;-85
2024/01/02 03:00:28;;;;;;;3.20;1.90;;;;;;;12.74;44.21;97863.25;6996757;28;20266;-84
2024/01/02 03:03:50;;;;;;;2.70;1.70;;;;;;;12.65;44.47;97840.34;6995994;28;20237;-85
2024/01/02 03:07:12;;;;;;;1.70;1.60;;;;;;;12.67;44.51;97849.03;7001138;28;20284;-84
2024/01/02 03:10:33;;;;;;;1.80;1.70;;;;;;;12.35;45.51;97829.78;6997873;28;20231;-85
2024/01/02 03:13:56;;;;;;;2.00;1.90;;;;;;;12.60;44.80;97830.25;6998533;28;20262;-84
2024/01/02 03:17:18;;;;;;;1.80;1.70;;;;;;;12.42;45.70;97818.78;7007068;28;20550;-85
2024/01/02 03:20:39;;;;;;;1.93;1.83;;;;;;;12.50;45.25;97815.69;7000382;28;20233;-84
2024/01/02 03:24:02;;;;;;;2.37;1.70;;;;;;;12.41;45.36;97803.66;7000598;28;20297;-84
2024/01/02 03:27:24;;;;;;;1.80;1.70;;;;;;;12.52;45.41;97800.88;7004045;28;20208;-85
2024/01/02 03:30:46;;;;;;;1.77;1.67;;;;;;;12.55;45.49;97772.53;7014724;28;20292;-85
2024/01/02 03:34:08;;;;;;;2.10;2.00;;;;;;;12.59;45.30;97773.72;7010365;28;20343;-84
2024/01/02 03:37:29;;;;;;;5.83;1.80;;;;;;;12.29;46.09;97732.59;7013332;28;20676;-84
2024/01/02 03:40:51;;;;;;;2.03;1.93;;;;;;;12.42;46.76;97759.31;7003255;28;20257;-85
2024/01/02 03:44:12;;;;;;;2.07;1.90;;;;;;;12.65;47.31;97754.63;7002129;28;20233;-85
2024/01/02 03:47:35;;;;;;;1.80;1.60;;;;;;;12.15;48.36;97742.88;7010503;28;20749;-84
2024/01/02 03:50:57;;;;;;;2.30;2.10;;;;;;;12.44;48.24;97736.41;7002208;28;20348;-84
2024/01/02 03:54:18;;;;;;;3.63;1.90;;;;;;;12.09;48.68;97735.72;7004482;28;20213;-85
2024/01/02 03:57:40;;;;;;;2.30;2.03;;;;;;;12.07;49.81;97726.22;7006457;28;20289;-85
2024/01/02 04:01:01;;;;;;;1.90;1.80;;;;;;;12.33;49.60;97690.53;7010060;28;20290;-85
2024/01/02 04:04:24;;;;;;;2.03;1.80;;;;;;;12.25;49.37;97686.31;7002338;28;20720;-85
2024/01/02 04:07:46;;;;;;;1.60;1.53;;;;;;;12.05;50.31;97688.63;7000597;28;20237;-85
2024/01/02 04:11:08;;;;;;;2.97;1.80;;;;;;;12.43;50.04;97682.56;7002988;28;20285;-85
2024/01/02 04:14:29;;;;;;;1.60;1.50;;;;;;;12.46;50.08;97674.78;7010327;28;20246;-85
2024/01/02 04:17:50;;;;;;;1.80;1.70;;;;;;;11.96;50.99;97668.47;7013573;28;20249;-85
2024/01/02 04:21:13;;;;;;;1.57;1.47;;;;;;;12.14;51.27;97660.19;7014833;28;20323;-84
2024/01/02 04:24:35;;;;;;;1.50;1.40;;;;;;;12.48;50.19;97669.97;7022544;28;20234;-85
2024/01/02 04:27:57;;;;;;;1.60;1.50;;;;;;;12.78;50.17;97656.13;7014729;28;20262;-84
2024/01/02 04:31:18;;;;;;;1.50;1.50;;;;;;;11.96;51.36;97629.84;7034970;28;20226;-84
2024/01/02 04:34:40;;;;;;;2.00;1.57;;;;;;;11.90;52.28;97638.91;7039963;28;20254;-86
2024/01/02 04:38:03;;;;;;;1.63;1.53;;;;;;;12.13;52.33;97644.19;7018602;28;20717;-84
2024/01/02 04:41:25;;;;;;;2.73;1.83;;;;;;;12.22;51.71;97634.66;7016109;28;20249;-84
2024/01/02 04:44:46;;;;;;;1.63;1.60;;;;;;;12.06;52.27;97630.88;7021689;28;20237;-84
2024/01/02 04:48:08;;;;;;;1.60;1.50;;;;;;;12.16;52.28;97622.13;7026277;28;20248;-85
2024/01/02 04:51:30;;;;;;;1.70;1.60;;;;;;;11.91;52.87;97602.72;7016215;28;20206;-84
2024/01/02 04:54:59;;;;;;;2.00;1.60;;;;;;;11.67;53.89;97604.72;7015644;28;20209;-84
2024/01/02 04:58:20;;;;;;;1.60;1.60;;;;;;;11.78;54.46;97597.63;7015196;28;20290;-84
2024/01/02 05:01:42;;;;;;;1.57;1.47;;;;;;;11.02;54.43;97500.03;7022694;28;20267;-84
2024/01/02 05:05:04;;;;;;;1.50;1.50;;;;;;;11.76;54.81;97587.06;7015137;28;20310;-85
2024/01/02 05:08:26;;;;;;;1.40;1.40;;;;;;;11.25;56.33;97586.28;7033566;28;20270;-85
2024/01/02 05:11:49;;;;;;;1.70;1.60;;;;;;;11.51;55.83;97567.66;7026080;28;20215;-85
2024/01/02 05:15:10;;;;;;;2.30;1.43;;;;;;;11.25;56.12;97583.59;7024345;28;20749;-85
2024/01/02 05:18:32;;;;;;;1.40;1.40;;;;;;;11.33;56.21;97556.25;7009906;28;20263;-85
2024/01/02 05:21:53;;;;;;;1.40;1.40;;;;;;;11.48;56.12;97561.94;7027184;28;20728;-85
2024/01/02 05:25:15;;;;;;;1.50;1.50;;;;;;;11.44;56.57;97549.97;7022984;28;20221;-84
2024/01/02 05:28:38;;;;;;;1.70;1.60;;;;;;;11.38;56.15;97527.47;7012618;28;20337;-85
2024/01/02 05:32:00;;;;;;;2.50;1.50;;;;;;;11.44;56.72;97528.38;7014210;28;20210;-85
2024/01/02 05:35:21;;;;;;;1.50;1.40;;;;;;;11.68;56.42;97538.06;7031318;28;20290;-86
2024/01/02 05:38:43;;;;;;;2.07;1.60;;;;;;;11.61;56.16;97519.31;7013801;28;20241;-85
2024/01/02 05:42:05;;;;;;;1.50;1.50;;;;;;;11.28;56.65;97507.59;7008665;28;20245;-85
2024/01/02 05:45:28;;;;;;;1.30;1.30;;;;;;;11.86;56.05;97527.84;7031535;28;20238;-85
2024/01/02 05:48:50;;;;;;;2.30;1.40;;;;;;;11.65;56.83;97525.88;7013793;28;20715;-85
2024/01/02 05:52:11;;;;;;;1.87;1.77;;;;;;;12.07;55.55;97521.75;7022625;28;20204;-85
2024/01/02 05:55:33;;;;;;;1.70;1.60;;;;;;;11.90;55.56;97499.31;7016560;28;20283;-86
2024/01/02 05:58:54;;;;;;;1.80;1.70;;;;;;;11.78;56.48;97492.31;7026603;28;20249;-87
2024/01/02 06:02:17;;;;;;;1.60;1.50;;;;;;;10.87;57.83;97413.47;7022662;28;20255;-85
2024/01/02 06:05:38;;;;;;;1.50;1.50;;;;;;;11.18;56.91;97442.66;7035365;28;20208;-85
2024/01/02 06:09:00;;;;;;;1.97;1.57;;;;;;;10.91;59.11;97474.75;7036360;28;20229;-86
2024/01/02 06:12:21;;;;;;;1.57;1.50;;;;;;;11.63;57.25;97475.88;7029966;28;20263;-86
2024/01/02 06:15:43;;;;;;;1.77;1.67;;;;;;;11.71;57.01;97475.47;7021485;28;20213;-85
2024/01/02 06:19:06;;;;;;;1.70;1.60;;;;;;;11.63;56.84;97473.19;7009069;28;20217;-85
2024/01/02 06:22:28;;;;;;;2.30;2.13;;;;;;;11.30;57.86;97486.56;7010380;28;20249;-82
2024/01/02 06:25:49;;;;;;;1.50;1.50;;;;;;;11.81;56.83;97479.16;7012931;28;20210;-85
2024/01/02 06:29:11;;;;;;;1.73;1.40;;;;;;;11.71;56.80;97488.97;7010928;28;20643;-85
2024/01/02 06:32:34;;;;;;;1.47;1.47;;;;;;;11.24;57.07;97410.13;7012543;28;20205;-85
2024/01/02 06:35:57;;;;;;;2.00;1.80;;;;;;;11.93;56.51;97466.38;7012146;28;20206;-85
2024/01/02 06:39:18;;;;;;;1.60;1.60;;;;;;;11.41;56.83;97423.63;7018986;28;20264;-85
2024/01/02 06:42:40;;;;;;;1.80;1.70;;;;;;;11.85;56.67;97460.56;7010843;28;20714;-84
2024/01/02 06:46:02;;;;;;;1.57;1.57;;;;;;;11.89;56.06;97443.66;7018712;28;20282;-85
2024/01/02 06:49:24;;;;;;;1.43;1.43;;;;;;;11.75;56.46;97452.34;7016542;28;20225;-84
2024/01/02 06:52:47;;;;;;;1.70;1.60;;;;;;;11.01;58.21;97429.13;7011159;28;20251;-85
2024/01/02 06:56:08;;;;;;;1.40;1.40;;;;;;;11.04;58.04;97427.81;7014680;28;20290;-86
2024/01/02 06:59:30;;;;;;;1.50;1.40;;;;;;;11.47;57.39;97439.69;7012565;28;20310;-86
2024/01/02 07:02:51;;;;;;;1.60;1.50;;;;;;;11.60;57.09;97438.56;7009767;28;20236;-87
2024/01/02 07:06:13;;;;;;;1.40;1.40;;;;;;;11.54;57.20;97451.13;7003278;28;20391;-84
2024/01/02 07:09:36;;;;;;;1.57;1.47;;;;;;;11.97;56.04;97435.13;7010057;28;20362;-86
2024/01/02 07:12:57;;;;;;;1.30;1.30;;;;;;;12.22;55.16;97432.81;7011485;28;20225;-85
2024/01/02 07:16:20;;;;;;;1.67;1.57;;;;;;;11.69;56.49;97426.31;7001726;28;20292;-85
2024/01/02 07:19:42;;;;;;;1.80;1.70;;;;;;;12.20;55.43;97415.19;7000517;28;20237;-84
2024/01/02 07:23:04;;;;;;;1.40;1.40;;;;;;;12.12;55.40;97426.44;6999578;28;20229;-85
2024/01/02 07:26:26;;;;;;;1.40;1.40;;;;;;;11.73;56.67;97424.75;7000272;28;20205;-82
2024/01/02 07:29:48;;;;;;;1.37;1.37;;;;;;;12.27;55.81;97423.97;7006290;28;21081;-84
2024/01/02 07:33:10;;;;;;;1.37;1.37;;;;;;;12.25;55.47;97412.56;6996835;28;20224;-85
2024/01/02 07:36:32;;;;;;;1.50;1.50;;;;;;;11.58;55.73;97332.69;7003221;28;20238;-84
2024/01/02 07:39:54;;;;;;;1.37;1.37;;;;;;;11.88;57.05;97385.31;7007535;28;20372;-84
2024/01/02 07:43:16;;;;;;;1.30;1.30;;;;;;;12.51;55.68;97420.78;7014751;28;20362;-85
2024/01/02 07:46:38;;;;;;;1.53;1.50;;;;;;;12.99;54.15;97406.50;7007172;28;20293;-86
2024/01/02 07:49:59;;;;;;;1.40;1.40;;;;;;;12.08;55.42;97369.38;6999490;28;20253;-87
2024/01/02 07:53:22;;;;;;;1.13;1.13;;;;;;;12.97;54.58;97419.47;6999338;28;20239;-84
2024/01/02 07:56:43;;;;;;;1.30;1.30;;;;;;;12.91;54.55;97428.56;7006597;28;20579;-85
2024/01/02 08:00:07;;;;;;;1.47;1.37;;;;;;;12.93;54.20;97426.44;7000489;28;20363;-86
2024/01/02 08:03:29;;;;;;;1.30;1.30;;;;;;;12.87;54.00;97412.00;7003338;28;20237;-86
2024/01/02 08:06:50;;;;;;;1.20;1.20;;;;;;;13.35;53.77;97430.16;7013849;28;20698;-86
2024/01/02 08:10:12;;;;;;;1.10;1.10;;;;;;;12.88;54.47;97426.38;6999566;28;20233;-86
2024/01/02 08:13:33;;;;;;;1.30;1.30;;;;;;;13.09;54.31;97428.28;6999794;28;20209;-86
2024/01/02 08:16:56;;;;;;;1.30;1.30;;;;;;;13.04;54.17;97447.16;7001805;28;20299;-83
2024/01/02 08:20:18;;;;;;;3.63;1.70;;;;;;;12.82;54.92;97435.50;7004110;28;20235;-83
2024/01/02 08:23:39;;;;;;;2.07;1.90;;;;;;;13.23;54.28;97433.00;7013280;28;20226;-86
2024/01/02 08:27:01;;;;;;;2.10;1.50;;;;;;;12.86;55.32;97445.56;7010839;28;20234;-81
2024/01/02 08:30:22;;;;;;;1.30;1.30;;;;;;;13.26;54.66;97439.81;7030865;28;20225;-81
2024/01/02 08:33:45;;;;;;;1.40;1.30;;;;;;;12.85;55.02;97448.50;7007399;28;20256;-82
2024/01/02 08:37:07;;;;;;;1.23;1.17;;;;;;;12.95;54.91;97446.78;6998868;28;20273;-83
2024/01/02 08:40:29;;;;;;;1.70;1.60;;;;;;;12.72;56.06;97457.00;7013134;28;20221;-85
2024/01/02 08:43:50;;;;;;;1.40;1.40;;;;;;;13.78;53.33;97446.25;7006152;28;20205;-83
2024/01/02 08:47:12;;;;;;;1.10;1.10;;;;;;;13.30;53.95;97419.28;7017569;28;20340;-81
2024/01/02 08:50:35;;;;;;;1.47;1.37;;;;;;;12.89;53.64;97363.09;7004234;28;20358;-83
2024/01/02 08:53:57;;;;;;;1.77;1.67;;;;;;;12.99;55.49;97434.38;7017317;28;20208;-82
2024/01/02 08:57:24;;;;;;;1.60;1.53;;;;;;;13.25;53.87;97386.75;7022055;28;20572;-83
2024/01/02 09:00:46;;;;;;;1.60;1.33;;;;;;;14.08;52.60;97430.25;7007078;28;20590;-83
2024/01/02 09:04:08;;;;;;;1.53;1.53;;;;;;;13.50;52.27;97340.94;7024714;28;20203;-83
2024/01/02 09:07:32;;;;;;;1.70;1.60;;;;;;;13.78;52.91;97446.25;7016507;28;20198;-83
2024/01/02 09:10:56;;;;;;;1.80;1.70;;;;;;;13.17;54.62;97438.63;7016322;28;20202;-83
2024/01/02 09:14:17;;;;;;;1.20;1.20;;;;;;;13.46;53.97;97430.00;7003799;28;20202;-85
2024/01/02 09:17:39;;;;;;;2.00;1.43;;;;;;;13.02;54.74;97443.88;7002676;28;20664;-85
2024/01/02 09:21:01;;;;;;;1.30;1.30;;;;;;;12.84;56.17;97453.09;7004157;28;20304;-81
2024/01/02 09:28:03;;;;;;;1.10;1.10;;;;;;;12.25;56.19;97396.34;6993837;28;20231;-85
2024/01/02 09:31:26;;;;;;;1.37;1.33;;;;;;;12.54;56.90;97465.41;7010132;28;20201;-84
2024/01/02 09:34:48;;;;;;;1.20;1.20;;;;;;;12.89;55.92;97463.16;7008004;28;20666;-85
2024/01/02 09:38:09;;;;;;;1.30;1.30;;;;;;;13.55;54.27;97452.00;7008482;28;20272;-85
2024/01/02 09:41:43;;;;;;;1.30;1.20;;;;;;;13.44;54.68;97458.41;7011154;28;20225;-83
2024/01/02 09:45:13;;;;;;;1.40;1.40;;;;;;;14.00;53.19;97461.38;7022026;28;20251;-82
2024/01/02 09:48:55;;;;;;;1.20;1.20;;;;;;;13.23;54.70;97451.16;7014607;28;20232;-83
2024/01/02 09:52:32;;;;;;;1.70;1.60;;;;;;;13.55;54.54;97481.78;7023372;28;20213;-83
2024/01/02 09:56:00;;;;;;;2.10;1.40;;;;;;;13.65;53.95;97468.34;7013843;28;20341;-83
2024/01/02 09:59:37;;;;;;;1.27;1.27;;;;;;;13.84;53.17;97472.31;7012616;28;20315;-83
2024/01/02 10:03:22;;;;;;;1.23;1.23;;;;;;;13.60;54.16;97460.19;6995669;28;20733;-82
2024/01/02 10:06:58;;;;;;;1.40;1.40;;;;;;;12.93;56.17;97465.09;6996262;28;20247;-86
2024/01/02 10:10:25;;;;;;;1.53;1.53;;;;;;;13.58;54.52;97470.47;7020912;28;20264;-83
2024/01/02 10:13:49;;;;;;;1.50;1.40;;;;;;;13.61;53.98;97470.78;7008086;28;20708;-82
2024/01/02 10:17:18;;;;;;;1.50;1.40;;;;;;;13.24;55.19;97463.59;7010558;28;20210;-82
2024/01/02 10:20:48;;;;;;;1.93;1.40;;;;;;;12.96;56.32;97469.22;7006202;28;20201;-83
2024/01/02 10:24:20;;;;;;;1.50;1.40;;;;;;;13.57;54.59;97442.56;6998940;28;20708;-83
2024/01/02 10:27:47;;;;;;;1.23;1.23;;;;;;;13.27;55.46;97469.31;6984217;28;20293;-84
2024/01/02 10:31:14;;;;;;;1.57;1.50;;;;;;;13.70;54.76;97468.41;6999024;28;20207;-83
2024/01/02 10:34:43;;;;;;;1.40;1.40;;;;;;;13.61;54.76;97448.28;7011496;28;20284;-84
2024/01/02 10:38:09;;;;;;;1.40;1.40;;;;;;;13.52;55.06;97447.13;7002404;28;20286;-84
2024/01/02 10:41:39;;;;;;;1.43;1.40;;;;;;;13.76;54.75;97429.47;6999232;28;20626;-83
2024/01/02 10:45:10;;;;;;;1.30;1.30;;;;;;;14.06;54.17;97425.09;6999461;28;20294;-81
2024/01/02 10:48:40;;;;;;;1.50;1.40;;;;;;;13.93;53.97;97422.03;6996352;28;20233;-83
2024/01/02 10:52:10;;;;;;;1.80;1.70;;;;;;;13.30;55.43;97411.16;7002722;28;20330;-83
2024/01/02 10:55:38;;;;;;;1.30;1.30;;;;;;;14.15;53.79;97422.72;6988077;28;20596;-83
2024/01/02 10:59:05;;;;;;;1.60;1.30;;;;;;;13.47;55.63;97409.16;6994176;28;20313;-83
2024/01/02 11:02:41;;;;;;;1.97;1.73;;;;;;;14.36;54.07;97400.94;6995815;28;20264;-83
2024/01/02 11:06:10;;;;;;;2.00;1.90;;;;;;;14.38;53.50;97395.22;6999788;28;20198;-82
2024/01/02 11:09:37;;;;;;;2.27;1.80;;;;;;;13.71;55.89;97411.28;6989743;28;20264;-83
2024/01/02 11:13:03;;;;;;;1.80;1.30;;;;;;;14.87;53.10;97380.25;6994161;28;20296;-84
2024/01/02 11:16:27;;;;;;;21.47;8.97;;;;;;;14.87;53.27;97369.41;6997885;28;20605;-86
2024/01/02 11:19:56;;;;;;;21.57;13.13;;;;;;;14.50;53.91;97368.72;6999780;28;20313;-85
2024/01/02 11:23:18;;;;;;;2.10;1.47;;;;;;;14.25;53.47;97371.28;7000274;28;20270;-82
2024/01/02 11:26:44;;;;;;;1.33;1.33;;;;;;;14.10;53.53;97346.81;6982564;28;20252;-80
2024/01/02 11:30:08;;;;;;;1.20;1.20;;;;;;;14.33;53.88;97338.28;6998123;28;20222;-84
2024/01/02 11:33:36;;;;;;;1.17;1.17;;;;;;;14.56;53.10;97356.78;6978814;28;20211;-84
2024/01/02 11:37:08;;;;;;;1.10;1.10;;;;;;;13.31;55.71;97328.88;6996494;28;20236;-83
2024/01/02 11:40:32;;;;;;;1.57;1.10;;;;;;;13.31;55.65;97299.94;6989111;28;20378;-85
2024/01/02 11:44:00;;;;;;;1.40;1.30;;;;;;;13.98;54.57;97327.22;6999435;28;20681;-82
2024/01/02 11:47:29;;;;;;;1.20;1.20;;;;;;;13.48;55.54;97310.63;7024107;28;20540;-86
2024/01/02 11:50:52;;;;;;;1.00;1.00;;;;;;;13.64;55.56;97323.19;6995299;28;20282;-85
2024/01/02 11:54:25;;;;;;;1.53;1.10;;;;;;;14.06;54.38;97294.19;6976476;28;20198;-86
2024/01/02 11:57:52;;;;;;;1.20;1.20;;;;;;;13.96;54.53;97294.13;6995947;28;20312;-82
2024/01/02 12:01:26;;;;;;;1.23;1.23;;;;;;;14.28;53.45;97282.13;6996998;28;20700;-83
2024/01/02 12:05:00;;;;;;;1.30;1.30;;;;;;;14.06;53.27;97259.78;6995913;28;20274;-85
2024/01/02 12:08:26;;;;;;;1.30;1.20;;;;;;;14.05;54.21;97255.44;6993702;28;20630;-86
2024/01/02 12:11:51;;;;;;;1.13;1.13;;;;;;;13.62;55.50;97271.22;6996998;28;20707;-85
2024/01/02 12:15:17;;;;;;;1.27;1.27;;;;;;;14.25;53.85;97252.84;6996146;28;20199;-84
2024/01/02 12:18:42;;;;;;;1.10;1.10;;;;;;;14.21;53.73;97270.72;6996186;28;20298;-85
2024/01/02 12:22:07;;;;;;;1.53;1.43;;;;;;;14.24;53.63;97259.38;6996378;28;20257;-85
2024/01/02 12:25:29;;;;;;;1.00;1.00;;;;;;;14.07;53.90;97256.00;6993783;28;20223;-82
2024/01/02 12:28:52;;;;;;;1.10;1.10;;;;;;;14.58;53.07;97254.31;6994724;28;20270;-83
2024/01/02 12:32:17;;;;;;;1.20;1.20;;;;;;;14.34;53.65;97251.25;6997416;28;20202;-84
2024/01/02 12:35:51;;;;;;;1.30;1.30;;;;;;;14.37;52.26;97179.41;6998500;28;20858;-83
2024/01/02 12:39:16;;;;;;;1.40;1.40;;;;;;;14.01;54.32;97243.50;6994492;28;20234;-82
2024/01/02 12:42:43;;;;;;;1.00;1.00;;;;;;;14.02;54.71;97228.06;7004415;28;20234;-83
2024/01/02 12:46:12;;;;;;;1.13;1.10;;;;;;;14.13;54.24;97248.69;7003301;28;20206;-82
2024/01/02 12:49:40;;;;;;;1.30;1.30;;;;;;;14.10;54.65;97231.06;6999633;28;20255;-82
2024/01/02 12:53:09;;;;;;;1.20;1.20;;;;;;;14.34;53.53;97198.94;7012372;28;20550;-82
2024/01/02 12:56:32;;;;;;;1.03;1.03;;;;;;;14.20;54.01;97206.75;7005111;28;20204;-83
2024/01/02 12:59:54;;;;;;;1.10;1.10;;;;;;;14.50;53.16;97217.66;7003829;28;20226;-81
2024/01/02 13:03:17;;;;;;;1.00;1.00;;;;;;;14.18;54.10;97199.94;7005872;28;20231;-82
2024/01/02 13:06:40;;;;;;;1.13;1.13;;;;;;;13.96;54.85;97185.75;7010061;28;20238;-81
2024/01/02 13:10:04;;;;;;;2.00;1.57;;;;;;;13.94;54.98;97202.31;7009154;28;20282;-82
2024/01/02 13:13:26;;;;;;;1.20;1.10;;;;;;;13.72;55.44;97182.69;7010524;28;20213;-84
2024/01/02 13:16:47;;;;;;;1.10;1.10;;;;;;;14.41;53.93;97181.34;7001113;28;20289;-83
2024/01/02 13:20:10;;;;;;;1.03;1.03;;;;;;;14.73;53.00;97192.75;6998706;28;20440;-85
2024/01/02 13:23:32;;;;;;;1.13;1.13;;;;;;;14.67;52.81;97182.16;6998944;28;20312;-84
2024/01/02 13:26:56;;;;;;;1.03;1.03;;;;;;;14.57;53.20;97188.38;6995421;28;20362;-83
2024/01/02 13:30:21;;;;;;;1.10;1.10;;;;;;;14.95;52.17;97182.47;7000398;28;20262;-83
2024/01/02 13:33:43;;;;;;;1.20;1.20;;;;;;;14.41;53.62;97184.03;6999610;28;20683;-83
2024/01/02 13:37:05;;;;;;;1.27;1.27;;;;;;;14.81;53.14;97183.28;7023777;28;20232;-82
2024/01/02 13:40:27;;;;;;;1.10;1.10;;;;;;;14.63;53.37;97175.66;7028621;28;20255;-79
2024/01/02 13:43:50;;;;;;;1.20;1.10;;;;;;;14.43;53.94;97178.34;7020598;28;20241;-82
2024/01/02 13:47:13;;;;;;;1.07;1.07;;;;;;;13.57;56.37;97168.28;7000839;28;20210;-82
2024/01/02 13:50:37;;;;;;;1.33;1.30;;;;;;;14.42;54.08;97180.25;7011021;28;20612;-82
2024/01/02 13:54:00;;;;;;;2.80;1.27;;;;;;;14.30;54.92;97165.31;7002721;28;20208;-82
2024/01/02 13:57:26;;;;;;;1.20;1.20;;;;;;;14.60;53.77;97163.44;7008847;28;20212;-82
2024/01/02 14:00:50;;;;;;;1.10;1.10;;;;;;;14.88;53.46;97181.09;7008406;28;20335;-84
2024/01/02 14:04:14;;;;;;;1.93;1.50;;;;;;;14.13;55.03;97170.94;7003409;28;20313;-82
2024/01/02 14:07:40;;;;;;;1.53;1.43;;;;;;;14.55;54.20;97176.19;7003230;28;20320;-82
2024/01/02 14:11:07;;;;;;;1.23;1.23;;;;;;;14.00;54.84;97147.06;7001420;28;20236;-82
2024/01/02 14:14:31;;;;;;;1.10;1.10;;;;;;;14.07;55.26;97172.00;7002381;28;20673;-83
2024/01/02 14:17:58;;;;;;;1.30;1.30;;;;;;;14.06;55.70;97173.09;7002176;28;20237;-83
2024/01/02 14:21:20;;;;;;;1.37;1.30;;;;;;;13.92;56.44;97176.56;7005318;28;20210;-83
2024/01/02 14:24:48;;;;;;;1.20;1.20;;;;;;;14.56;54.57;97178.63;7007598;28;20226;-83
2024/01/02 14:28:12;;;;;;;1.40;1.30;;;;;;;13.96;55.54;97143.25;7003333;28;20229;-83
2024/01/02 14:31:43;;;;;;;1.23;1.23;;;;;;;14.46;54.87;97175.09;7000856;28;20241;-83
2024/01/02 14:35:10;;;;;;;1.30;1.10;;;;;;;14.82;54.30;97174.84;7000654;28;20248;-84
2024/01/02 14:38:36;;;;;;;1.50;1.40;;;;;;;14.00;56.44;97181.44;6992140;28;20564;-83
2024/01/02 14:42:28;;;;;;;1.40;1.40;;;;;;;14.28;56.39;97181.03;7014465;28;20295;-83
2024/01/02 14:45:53;;;;;;;1.20;1.20;;;;;;;14.41;55.98;97166.94;6966632;28;20293;-82
2024/01/02 14:49:24;;;;;;;1.70;1.60;;;;;;;14.22;56.87;97180.19;7000729;28;20622;-82
2024/01/02 14:53:00;;;;;;;1.40;1.40;;;;;;;14.14;56.98;97167.13;7000502;28;20601;-83
2024/01/02 14:56:31;;;;;;;1.30;1.30;;;;;;;14.17;57.41;97184.75;6996324;28;20234;-83
2024/01/02 14:59:58;;;;;;;1.50;1.40;;;;;;;14.00;57.95;97181.44;7005919;28;20264;-82
2024/01/02 15:03:33;;;;;;;1.67;1.57;;;;;;;13.98;58.00;97186.31;7028882;28;20207;-83
2024/01/02 15:06:56;;;;;;;1.30;1.30;;;;;;;14.04;58.08;97174.44;7029425;28;20694;-85
2024/01/02 15:10:21;;;;;;;1.73;1.63;;;;;;;14.17;58.19;97187.47;7016665;28;20268;-85
2024/01/02 15:14:01;;;;;;;1.60;1.30;;;;;;;14.30;57.32;97181.56;7001028;28;20209;-84
2024/01/02 15:17:35;;;;;;;1.20;1.20;;;;;;;13.89;58.26;97166.22;7015934;28;20260;-83
2024/01/02 15:21:05;;;;;;;1.60;1.50;;;;;;;13.99;57.96;97171.69;6996757;28;20195;-83
2024/01/02 15:24:33;;;;;;;1.80;1.70;;;;;;;14.11;58.23;97166.84;6992938;28;20209;-83
2024/01/02 15:28:02;;;;;;;1.70;1.60;;;;;;;14.24;57.89;97180.75;7005442;28;20633;-84
2024/01/02 15:31:26;;;;;;;1.93;1.83;;;;;;;13.73;58.00;97153.69;6992422;28;20344;-88
2024/01/02 15:34:59;;;;;;;1.43;1.33;;;;;;;14.06;58.36;97169.53;7008296;28;20401;-83
2024/01/02 15:38:22;;;;;;;1.70;1.60;;;;;;;14.67;56.47;97155.84;7019382;28;20235;-84
2024/01/02 15:41:56;;;;;;;1.50;1.50;;;;;;;14.05;57.51;97149.75;6991516;28;20203;-83
2024/01/02 15:45:24;;;;;;;1.60;1.50;;;;;;;14.17;57.50;97168.50;7000551;28;20687;-84
2024/01/02 15:48:55;;;;;;;1.60;1.50;;;;;;;14.30;56.98;97130.06;6997645;28;20249;-83
2024/01/02 15:52:23;;;;;;;1.53;1.50;;;;;;;14.12;57.69;97146.81;7000783;28;20239;-88
2024/01/02 15:55:50;;;;;;;1.80;1.70;;;;;;;14.13;57.50;97146.53;7009055;28;20270;-86
2024/01/02 15:59:13;;;;;;;1.83;1.50;;;;;;;13.74;57.25;97083.03;7000053;28;20802;-85
2024/01/02 16:03:07;;;;;;;1.40;1.30;;;;;;;14.35;56.74;97130.06;7004533;28;20313;-85
2024/01/02 16:06:54;;;;;;;1.53;1.40;;;;;;;14.20;56.74;97130.84;6976429;28;20245;-85